sensor_id;sensor_type;location;lat;lon;timestamp;temperature;humidity
31991;DHT22;18508;49.386;8.370;2023-04-02T00:00:19;10.00;99.90
31991;DHT22;18508;49.386;8.370;2023-04-02T00:02:55;10.00;99.90
31991;DHT22;18508;49.386;8.370;2023-04-02T00:05:42;10.00;99.90
31991;DHT22;18508;49.386;8.370;2023-04-02T00:08:25;10.00;99.90
31991;DHT22;18508;49.386;8.370;2023-04-02T00:10:57;10.00;99.90
31991;DHT22;18508;49.386;8.370;2023-04-02T00:13:34;9.90;99.90
31991;DHT22;18508;49.386;8.370;2023-04-02T00:16:04;10.00;99.90
31991;DHT22;18508;49.386;8.370;2023-04-02T00:18:37;9.90;99.90
31991;DHT22;18508;49.386;8.370;2023-04-02T00:21:11;9.90;99.90
31991;DHT22;18508;49.386;8.370;2023-04-02T00:23:42;9.90;99.90
31991;DHT22;18508;49.386;8.370;2023-04-02T00:26:29;9.90;99.90
31991;DHT22;18508;49.386;8.370;2023-04-02T00:28:58;9.70;99.90
31991;DHT22;18508;49.386;8.370;2023-04-02T00:31:26;9.70;99.90
31991;DHT22;18508;49.386;8.370;2023-04-02T00:33:56;9.70;99.90
31991;DHT22;18508;49.386;8.370;2023-04-02T00:36:28;9.60;99.90
31991;DHT22;18508;49.386;8.370;2023-04-02T00:38:58;9.70;99.90
31991;DHT22;18508;49.386;8.370;2023-04-02T00:41:30;9.60;99.90
31991;DHT22;18508;49.386;8.370;2023-04-02T00:44:02;9.60;99.90
31991;DHT22;18508;49.386;8.370;2023-04-02T00:46:38;9.60;99.90
31991;DHT22;18508;49.386;8.370;2023-04-02T00:49:19;9.60;99.90
31991;DHT22;18508;49.386;8.370;2023-04-02T00:51:52;9.60;99.90
31991;DHT22;18508;49.386;8.370;2023-04-02T00:54:24;9.60;99.90
31991;DHT22;18508;49.386;8.370;2023-04-02T00:56:56;9.60;99.90
31991;DHT22;18508;49.386;8.370;2023-04-02T00:59:28;9.50;99.90
31991;DHT22;18508;49.386;8.370;2023-04-02T01:02:18;10.00;99.90
31991;DHT22;18508;49.386;8.370;2023-04-02T01:04:51;9.60;99.90
31991;DHT22;18508;49.386;8.370;2023-04-02T01:07:28;8.20;99.90
31991;DHT22;18508;49.386;8.370;2023-04-02T01:10:28;9.70;99.90
31991;DHT22;18508;49.386;8.370;2023-04-02T01:13:06;9.70;99.90
31991;DHT22;18508;49.386;8.370;2023-04-02T01:15:40;9.70;99.90
31991;DHT22;18508;49.386;8.370;2023-04-02T01:18:23;9.70;99.90
31991;DHT22;18508;49.386;8.370;2023-04-02T01:21:23;9.70;99.90
31991;DHT22;18508;49.386;8.370;2023-04-02T01:24:01;9.60;99.90
31991;DHT22;18508;49.386;8.370;2023-04-02T01:26:41;9.70;99.90
31991;DHT22;18508;49.386;8.370;2023-04-02T01:29:15;9.60;99.90
31991;DHT22;18508;49.386;8.370;2023-04-02T01:31:45;9.60;99.90
31991;DHT22;18508;49.386;8.370;2023-04-02T01:34:17;9.60;99.90
31991;DHT22;18508;49.386;8.370;2023-04-02T01:37:02;9.50;99.90
31991;DHT22;18508;49.386;8.370;2023-04-02T01:39:42;9.50;99.90
31991;DHT22;18508;49.386;8.370;2023-04-02T01:42:16;9.50;99.90
31991;DHT22;18508;49.386;8.370;2023-04-02T01:44:47;9.50;99.90
31991;DHT22;18508;49.386;8.370;2023-04-02T01:47:18;9.60;99.90
31991;DHT22;18508;49.386;8.370;2023-04-02T01:49:47;9.50;99.90
31991;DHT22;18508;49.386;8.370;2023-04-02T01:52:18;9.50;99.90
31991;DHT22;18508;49.386;8.370;2023-04-02T01:54:52;9.60;99.90
31991;DHT22;18508;49.386;8.370;2023-04-02T01:57:21;9.50;99.90
31991;DHT22;18508;49.386;8.370;2023-04-02T01:59:51;9.50;99.90
31991;DHT22;18508;49.386;8.370;2023-04-02T02:02:20;9.50;99.90
31991;DHT22;18508;49.386;8.370;2023-04-02T02:04:48;9.50;99.90
31991;DHT22;18508;49.386;8.370;2023-04-02T02:07:19;9.50;99.90
31991;DHT22;18508;49.386;8.370;2023-04-02T02:09:48;9.40;99.90
31991;DHT22;18508;49.386;8.370;2023-04-02T02:12:24;9.40;99.90
31991;DHT22;18508;49.386;8.370;2023-04-02T02:14:55;9.40;99.90
31991;DHT22;18508;49.386;8.370;2023-04-02T02:17:28;9.40;99.90
31991;DHT22;18508;49.386;8.370;2023-04-02T02:20:01;9.30;99.90
31991;DHT22;18508;49.386;8.370;2023-04-02T02:22:34;9.30;99.90
31991;DHT22;18508;49.386;8.370;2023-04-02T02:25:06;9.40;99.90
31991;DHT22;18508;49.386;8.370;2023-04-02T02:27:57;9.40;99.90
31991;DHT22;18508;49.386;8.370;2023-04-02T02:30:29;9.40;99.90
31991;DHT22;18508;49.386;8.370;2023-04-02T02:33:05;9.30;99.90
31991;DHT22;18508;49.386;8.370;2023-04-02T02:35:39;9.30;99.90
31991;DHT22;18508;49.386;8.370;2023-04-02T02:38:30;9.30;99.90
31991;DHT22;18508;49.386;8.370;2023-04-02T02:41:06;9.30;99.90
31991;DHT22;18508;49.386;8.370;2023-04-02T02:43:41;9.30;99.90
31991;DHT22;18508;49.386;8.370;2023-04-02T02:46:19;9.20;99.90
31991;DHT22;18508;49.386;8.370;2023-04-02T02:48:51;9.20;99.90
31991;DHT22;18508;49.386;8.370;2023-04-02T02:51:26;9.20;99.90
31991;DHT22;18508;49.386;8.370;2023-04-02T02:53:57;9.20;99.90
31991;DHT22;18508;49.386;8.370;2023-04-02T02:56:28;9.20;99.90
31991;DHT22;18508;49.386;8.370;2023-04-02T03:01:29;9.10;99.90
31991;DHT22;18508;49.386;8.370;2023-04-02T03:03:58;9.20;99.90
31991;DHT22;18508;49.386;8.370;2023-04-02T03:06:27;9.20;99.90
31991;DHT22;18508;49.386;8.370;2023-04-02T03:09:02;9.20;99.90
31991;DHT22;18508;49.386;8.370;2023-04-02T03:11:37;9.50;99.90
31991;DHT22;18508;49.386;8.370;2023-04-02T03:14:15;9.20;99.90
31991;DHT22;18508;49.386;8.370;2023-04-02T03:16:48;9.50;99.90
31991;DHT22;18508;49.386;8.370;2023-04-02T03:19:26;9.10;99.90
31991;DHT22;18508;49.386;8.370;2023-04-02T03:21:58;9.20;99.90
31991;DHT22;18508;49.386;8.370;2023-04-02T03:24:35;9.20;99.90
31991;DHT22;18508;49.386;8.370;2023-04-02T03:27:10;9.20;99.90
31991;DHT22;18508;49.386;8.370;2023-04-02T03:29:45;9.50;99.90
31991;DHT22;18508;49.386;8.370;2023-04-02T03:32:21;9.10;99.90
31991;DHT22;18508;49.386;8.370;2023-04-02T03:34:53;9.20;99.90
31991;DHT22;18508;49.386;8.370;2023-04-02T03:37:28;9.20;99.90
31991;DHT22;18508;49.386;8.370;2023-04-02T03:40:01;9.20;99.90
31991;DHT22;18508;49.386;8.370;2023-04-02T03:42:39;9.80;99.90
31991;DHT22;18508;49.386;8.370;2023-04-02T03:45:12;9.20;99.90
31991;DHT22;18508;49.386;8.370;2023-04-02T03:47:50;9.20;99.90
31991;DHT22;18508;49.386;8.370;2023-04-02T03:50:24;9.20;99.90
31991;DHT22;18508;49.386;8.370;2023-04-02T03:52:57;9.10;99.90
31991;DHT22;18508;49.386;8.370;2023-04-02T03:55:27;9.60;99.90
31991;DHT22;18508;49.386;8.370;2023-04-02T03:58:00;8.80;99.90
31991;DHT22;18508;49.386;8.370;2023-04-02T04:00:34;9.00;99.90
31991;DHT22;18508;49.386;8.370;2023-04-02T04:03:11;9.00;99.90
31991;DHT22;18508;49.386;8.370;2023-04-02T04:05:47;9.10;99.90
31991;DHT22;18508;49.386;8.370;2023-04-02T04:08:18;9.10;99.90
31991;DHT22;18508;49.386;8.370;2023-04-02T04:10:50;9.10;99.90
31991;DHT22;18508;49.386;8.370;2023-04-02T04:13:23;9.10;99.90
31991;DHT22;18508;49.386;8.370;2023-04-02T04:15:58;9.10;99.90
31991;DHT22;18508;49.386;8.370;2023-04-02T04:18:31;9.10;99.90
31991;DHT22;18508;49.386;8.370;2023-04-02T04:21:09;9.10;99.90
31991;DHT22;18508;49.386;8.370;2023-04-02T04:23:39;9.10;99.90
31991;DHT22;18508;49.386;8.370;2023-04-02T04:26:20;9.10;99.90
31991;DHT22;18508;49.386;8.370;2023-04-02T04:28:55;9.10;99.90
31991;DHT22;18508;49.386;8.370;2023-04-02T04:31:34;9.10;99.90
31991;DHT22;18508;49.386;8.370;2023-04-02T04:34:12;9.10;99.90
31991;DHT22;18508;49.386;8.370;2023-04-02T04:36:44;9.10;99.90
31991;DHT22;18508;49.386;8.370;2023-04-02T04:39:24;9.10;99.90
31991;DHT22;18508;49.386;8.370;2023-04-02T04:41:57;9.10;99.90
31991;DHT22;18508;49.386;8.370;2023-04-02T04:44:38;9.10;99.90
31991;DHT22;18508;49.386;8.370;2023-04-02T04:47:10;9.00;99.90
31991;DHT22;18508;49.386;8.370;2023-04-02T04:49:45;9.10;99.90
31991;DHT22;18508;49.386;8.370;2023-04-02T04:52:18;9.00;99.90
31991;DHT22;18508;49.386;8.370;2023-04-02T04:54:47;9.10;99.90
31991;DHT22;18508;49.386;8.370;2023-04-02T04:57:28;9.10;99.90
31991;DHT22;18508;49.386;8.370;2023-04-02T05:00:01;9.40;99.90
31991;DHT22;18508;49.386;8.370;2023-04-02T05:02:39;9.10;99.90
31991;DHT22;18508;49.386;8.370;2023-04-02T05:05:28;9.20;99.90
31991;DHT22;18508;49.386;8.370;2023-04-02T05:08:03;9.20;99.90
31991;DHT22;18508;49.386;8.370;2023-04-02T05:10:39;9.20;99.90
31991;DHT22;18508;49.386;8.370;2023-04-02T05:13:15;9.20;99.90
31991;DHT22;18508;49.386;8.370;2023-04-02T05:15:49;9.20;99.90
31991;DHT22;18508;49.386;8.370;2023-04-02T05:18:25;9.20;99.90
31991;DHT22;18508;49.386;8.370;2023-04-02T05:20:58;9.30;99.90
31991;DHT22;18508;49.386;8.370;2023-04-02T05:23:33;9.20;99.90
31991;DHT22;18508;49.386;8.370;2023-04-02T05:26:07;9.20;99.90
31991;DHT22;18508;49.386;8.370;2023-04-02T05:28:42;9.40;99.90
31991;DHT22;18508;49.386;8.370;2023-04-02T05:31:14;9.20;99.90
31991;DHT22;18508;49.386;8.370;2023-04-02T05:33:48;9.20;99.90
31991;DHT22;18508;49.386;8.370;2023-04-02T05:36:23;9.30;99.90
31991;DHT22;18508;49.386;8.370;2023-04-02T05:38:53;9.30;99.90
31991;DHT22;18508;49.386;8.370;2023-04-02T05:41:25;9.20;99.90
31991;DHT22;18508;49.386;8.370;2023-04-02T05:44:04;9.30;99.90
31991;DHT22;18508;49.386;8.370;2023-04-02T05:46:39;9.30;99.90
31991;DHT22;18508;49.386;8.370;2023-04-02T05:49:17;9.40;99.90
31991;DHT22;18508;49.386;8.370;2023-04-02T05:51:52;9.40;99.90
31991;DHT22;18508;49.386;8.370;2023-04-02T05:54:26;9.60;99.90
31991;DHT22;18508;49.386;8.370;2023-04-02T05:57:00;9.40;99.90
31991;DHT22;18508;49.386;8.370;2023-04-02T05:59:32;9.40;99.90
31991;DHT22;18508;49.386;8.370;2023-04-02T06:02:07;9.50;99.90
31991;DHT22;18508;49.386;8.370;2023-04-02T06:04:45;9.50;99.90
31991;DHT22;18508;49.386;8.370;2023-04-02T06:07:19;9.50;99.90
31991;DHT22;18508;49.386;8.370;2023-04-02T06:09:49;9.50;99.90
31991;DHT22;18508;49.386;8.370;2023-04-02T06:12:25;9.50;99.90
31991;DHT22;18508;49.386;8.370;2023-04-02T06:14:56;9.50;99.90
31991;DHT22;18508;49.386;8.370;2023-04-02T06:17:26;9.50;99.90
31991;DHT22;18508;49.386;8.370;2023-04-02T06:19:56;9.60;99.90
31991;DHT22;18508;49.386;8.370;2023-04-02T06:22:34;9.60;99.90
31991;DHT22;18508;49.386;8.370;2023-04-02T06:25:12;9.60;99.90
31991;DHT22;18508;49.386;8.370;2023-04-02T06:27:45;9.50;99.90
31991;DHT22;18508;49.386;8.370;2023-04-02T06:30:17;9.60;99.90
31991;DHT22;18508;49.386;8.370;2023-04-02T06:32:46;9.60;99.90
31991;DHT22;18508;49.386;8.370;2023-04-02T06:35:15;9.60;99.90
31991;DHT22;18508;49.386;8.370;2023-04-02T06:37:46;9.60;99.90
31991;DHT22;18508;49.386;8.370;2023-04-02T06:40:27;9.70;99.90
31991;DHT22;18508;49.386;8.370;2023-04-02T06:42:58;9.80;99.90
31991;DHT22;18508;49.386;8.370;2023-04-02T06:45:30;9.90;99.90
31991;DHT22;18508;49.386;8.370;2023-04-02T06:48:01;9.90;99.90
31991;DHT22;18508;49.386;8.370;2023-04-02T06:50:34;9.90;99.90
31991;DHT22;18508;49.386;8.370;2023-04-02T06:53:17;10.00;99.90
31991;DHT22;18508;49.386;8.370;2023-04-02T06:55:50;10.00;99.90
31991;DHT22;18508;49.386;8.370;2023-04-02T06:58:20;10.10;99.90
31991;DHT22;18508;49.386;8.370;2023-04-02T07:00:49;10.10;99.90
31991;DHT22;18508;49.386;8.370;2023-04-02T07:03:22;10.20;99.90
31991;DHT22;18508;49.386;8.370;2023-04-02T07:05:50;10.50;99.90
31991;DHT22;18508;49.386;8.370;2023-04-02T07:08:20;9.90;99.90
31991;DHT22;18508;49.386;8.370;2023-04-02T07:10:49;10.30;99.90
31991;DHT22;18508;49.386;8.370;2023-04-02T07:13:19;10.10;99.90
31991;DHT22;18508;49.386;8.370;2023-04-02T07:15:51;10.30;99.90
31991;DHT22;18508;49.386;8.370;2023-04-02T07:18:25;10.40;99.90
31991;DHT22;18508;49.386;8.370;2023-04-02T07:20:54;10.70;99.90
31991;DHT22;18508;49.386;8.370;2023-04-02T07:23:24;10.80;99.90
31991;DHT22;18508;49.386;8.370;2023-04-02T07:25:53;10.90;99.90
31991;DHT22;18508;49.386;8.370;2023-04-02T07:28:22;10.90;99.90
31991;DHT22;18508;49.386;8.370;2023-04-02T07:30:51;11.00;99.90
31991;DHT22;18508;49.386;8.370;2023-04-02T07:33:22;11.00;99.90
31991;DHT22;18508;49.386;8.370;2023-04-02T07:35:53;10.90;99.90
31991;DHT22;18508;49.386;8.370;2023-04-02T07:38:22;11.00;99.90
31991;DHT22;18508;49.386;8.370;2023-04-02T07:40:51;11.10;99.90
31991;DHT22;18508;49.386;8.370;2023-04-02T07:43:19;11.30;99.90
31991;DHT22;18508;49.386;8.370;2023-04-02T07:45:49;11.30;99.90
31991;DHT22;18508;49.386;8.370;2023-04-02T07:48:17;11.10;99.90
31991;DHT22;18508;49.386;8.370;2023-04-02T07:50:45;11.30;99.90
31991;DHT22;18508;49.386;8.370;2023-04-02T07:53:25;11.30;99.90
31991;DHT22;18508;49.386;8.370;2023-04-02T07:55:58;11.50;99.90
31991;DHT22;18508;49.386;8.370;2023-04-02T07:58:26;11.70;99.90
31991;DHT22;18508;49.386;8.370;2023-04-02T08:00:54;11.90;99.90
31991;DHT22;18508;49.386;8.370;2023-04-02T08:03:23;12.00;99.90
31991;DHT22;18508;49.386;8.370;2023-04-02T08:05:52;12.20;99.90
31991;DHT22;18508;49.386;8.370;2023-04-02T08:08:21;12.50;99.90
31991;DHT22;18508;49.386;8.370;2023-04-02T08:10:51;12.70;91.00
31991;DHT22;18508;49.386;8.370;2023-04-02T08:13:22;12.90;1.00
31991;DHT22;18508;49.386;8.370;2023-04-02T08:15:50;12.90;1.00
31991;DHT22;18508;49.386;8.370;2023-04-02T08:18:21;13.00;1.00
31991;DHT22;18508;49.386;8.370;2023-04-02T08:20:50;13.10;1.00
31991;DHT22;18508;49.386;8.370;2023-04-02T08:23:19;13.10;1.00
31991;DHT22;18508;49.386;8.370;2023-04-02T08:25:48;13.30;1.00
31991;DHT22;18508;49.386;8.370;2023-04-02T08:28:17;12.90;1.00
31991;DHT22;18508;49.386;8.370;2023-04-02T08:30:47;13.20;1.00
31991;DHT22;18508;49.386;8.370;2023-04-02T08:33:17;13.10;1.00
31991;DHT22;18508;49.386;8.370;2023-04-02T08:35:46;12.90;1.00
31991;DHT22;18508;49.386;8.370;2023-04-02T08:38:15;12.80;1.00
31991;DHT22;18508;49.386;8.370;2023-04-02T08:40:44;13.10;1.00
31991;DHT22;18508;49.386;8.370;2023-04-02T08:43:48;13.20;1.00
31991;DHT22;18508;49.386;8.370;2023-04-02T08:46:25;13.30;1.00
31991;DHT22;18508;49.386;8.370;2023-04-02T08:48:56;13.00;1.00
31991;DHT22;18508;49.386;8.370;2023-04-02T08:51:27;13.00;1.00
31991;DHT22;18508;49.386;8.370;2023-04-02T08:54:00;13.20;1.00
31991;DHT22;18508;49.386;8.370;2023-04-02T08:56:30;13.40;1.00
31991;DHT22;18508;49.386;8.370;2023-04-02T08:59:22;13.50;1.00
31991;DHT22;18508;49.386;8.370;2023-04-02T09:02:01;13.30;1.00
31991;DHT22;18508;49.386;8.370;2023-04-02T09:04:32;13.50;1.00
31991;DHT22;18508;49.386;8.370;2023-04-02T09:07:02;13.40;1.00
31991;DHT22;18508;49.386;8.370;2023-04-02T09:09:34;13.50;1.00
31991;DHT22;18508;49.386;8.370;2023-04-02T09:12:10;13.60;1.00
31991;DHT22;18508;49.386;8.370;2023-04-02T09:14:42;13.60;99.90
31991;DHT22;18508;49.386;8.370;2023-04-02T09:17:17;13.80;99.90
31991;DHT22;18508;49.386;8.370;2023-04-02T09:19:52;13.80;99.90
31991;DHT22;18508;49.386;8.370;2023-04-02T09:22:23;13.90;99.90
31991;DHT22;18508;49.386;8.370;2023-04-02T09:24:52;13.80;99.90
31991;DHT22;18508;49.386;8.370;2023-04-02T09:27:24;13.90;99.90
31991;DHT22;18508;49.386;8.370;2023-04-02T09:29:54;13.90;99.90
31991;DHT22;18508;49.386;8.370;2023-04-02T09:35:24;14.00;99.90
31991;DHT22;18508;49.386;8.370;2023-04-02T09:38:26;13.90;99.90
31991;DHT22;18508;49.386;8.370;2023-04-02T09:40:59;14.00;99.90
31991;DHT22;18508;49.386;8.370;2023-04-02T09:43:29;13.70;99.90
31991;DHT22;18508;49.386;8.370;2023-04-02T09:46:02;13.60;99.90
31991;DHT22;18508;49.386;8.370;2023-04-02T09:48:35;13.40;1.00
31991;DHT22;18508;49.386;8.370;2023-04-02T09:51:11;13.40;1.00
31991;DHT22;18508;49.386;8.370;2023-04-02T09:53:41;13.40;1.00
31991;DHT22;18508;49.386;8.370;2023-04-02T09:56:14;13.40;1.00
31991;DHT22;18508;49.386;8.370;2023-04-02T09:58:43;13.30;1.00
31991;DHT22;18508;49.386;8.370;2023-04-02T10:01:28;13.20;1.00
31991;DHT22;18508;49.386;8.370;2023-04-02T10:03:59;13.20;1.00
31991;DHT22;18508;49.386;8.370;2023-04-02T10:06:29;13.20;1.00
31991;DHT22;18508;49.386;8.370;2023-04-02T10:09:19;13.20;1.00
31991;DHT22;18508;49.386;8.370;2023-04-02T10:11:50;13.20;1.00
31991;DHT22;18508;49.386;8.370;2023-04-02T10:14:22;13.20;1.00
31991;DHT22;18508;49.386;8.370;2023-04-02T10:16:54;13.30;1.00
31991;DHT22;18508;49.386;8.370;2023-04-02T10:19:39;13.30;1.00
31991;DHT22;18508;49.386;8.370;2023-04-02T10:22:12;13.30;1.00
31991;DHT22;18508;49.386;8.370;2023-04-02T10:24:42;13.10;1.00
31991;DHT22;18508;49.386;8.370;2023-04-02T10:27:23;13.00;1.00
31991;DHT22;18508;49.386;8.370;2023-04-02T10:32:50;13.00;1.00
31991;DHT22;18508;49.386;8.370;2023-04-02T10:35:37;13.00;1.00
31991;DHT22;18508;49.386;8.370;2023-04-02T10:38:18;13.00;1.00
31991;DHT22;18508;49.386;8.370;2023-04-02T10:40:53;12.80;1.00
31991;DHT22;18508;49.386;8.370;2023-04-02T10:43:42;12.20;99.90
31991;DHT22;18508;49.386;8.370;2023-04-02T10:46:19;11.60;99.90
31991;DHT22;18508;49.386;8.370;2023-04-02T10:48:56;11.20;99.90
31991;DHT22;18508;49.386;8.370;2023-04-02T10:51:35;11.20;99.90
31991;DHT22;18508;49.386;8.370;2023-04-02T10:54:21;11.10;99.90
31991;DHT22;18508;49.386;8.370;2023-04-02T10:56:59;11.10;99.90
31991;DHT22;18508;49.386;8.370;2023-04-02T10:59:32;10.90;99.90
31991;DHT22;18508;49.386;8.370;2023-04-02T11:02:13;11.10;99.90
31991;DHT22;18508;49.386;8.370;2023-04-02T11:04:46;11.20;99.90
31991;DHT22;18508;49.386;8.370;2023-04-02T11:07:18;10.80;99.90
31991;DHT22;18508;49.386;8.370;2023-04-02T11:09:52;10.80;99.90
31991;DHT22;18508;49.386;8.370;2023-04-02T11:12:26;10.80;99.90
31991;DHT22;18508;49.386;8.370;2023-04-02T11:15:14;10.90;99.90
31991;DHT22;18508;49.386;8.370;2023-04-02T11:17:43;11.10;99.90
31991;DHT22;18508;49.386;8.370;2023-04-02T11:23:19;10.90;99.90
31991;DHT22;18508;49.386;8.370;2023-04-02T11:25:47;11.20;99.90
31991;DHT22;18508;49.386;8.370;2023-04-02T11:28:25;11.40;99.90
31991;DHT22;18508;49.386;8.370;2023-04-02T11:30:55;11.60;99.90
31991;DHT22;18508;49.386;8.370;2023-04-02T11:33:38;11.10;99.90
31991;DHT22;18508;49.386;8.370;2023-04-02T11:39:45;11.10;99.90
31991;DHT22;18508;49.386;8.370;2023-04-02T11:42:25;10.70;99.90
31991;DHT22;18508;49.386;8.370;2023-04-02T11:44:55;10.80;99.90
31991;DHT22;18508;49.386;8.370;2023-04-02T11:47:26;10.70;99.90
31991;DHT22;18508;49.386;8.370;2023-04-02T11:50:05;10.80;99.90
31991;DHT22;18508;49.386;8.370;2023-04-02T11:52:37;10.90;99.90
31991;DHT22;18508;49.386;8.370;2023-04-02T11:55:25;10.70;99.90
31991;DHT22;18508;49.386;8.370;2023-04-02T12:06:49;10.40;99.90
31991;DHT22;18508;49.386;8.370;2023-04-02T12:09:20;10.20;99.90
31991;DHT22;18508;49.386;8.370;2023-04-02T12:11:52;10.30;99.90
31991;DHT22;18508;49.386;8.370;2023-04-02T12:14:43;10.00;99.90
31991;DHT22;18508;49.386;8.370;2023-04-02T12:17:16;10.00;99.90
31991;DHT22;18508;49.386;8.370;2023-04-02T12:19:50;10.00;99.90
31991;DHT22;18508;49.386;8.370;2023-04-02T12:22:21;10.00;99.90
31991;DHT22;18508;49.386;8.370;2023-04-02T12:24:55;10.00;99.90
31991;DHT22;18508;49.386;8.370;2023-04-02T12:27:27;9.90;99.90
31991;DHT22;18508;49.386;8.370;2023-04-02T12:30:10;9.80;99.90
31991;DHT22;18508;49.386;8.370;2023-04-02T12:32:39;9.90;99.90
31991;DHT22;18508;49.386;8.370;2023-04-02T12:35:25;9.90;99.90
31991;DHT22;18508;49.386;8.370;2023-04-02T12:37:54;9.90;99.90
31991;DHT22;18508;49.386;8.370;2023-04-02T12:40:23;10.00;99.90
31991;DHT22;18508;49.386;8.370;2023-04-02T12:42:53;9.80;99.90
31991;DHT22;18508;49.386;8.370;2023-04-02T12:45:23;9.80;99.90
31991;DHT22;18508;49.386;8.370;2023-04-02T12:47:56;9.80;99.90
31991;DHT22;18508;49.386;8.370;2023-04-02T12:50:24;9.80;99.90
31991;DHT22;18508;49.386;8.370;2023-04-02T12:52:53;9.80;99.90
31991;DHT22;18508;49.386;8.370;2023-04-02T12:55:25;9.70;99.90
31991;DHT22;18508;49.386;8.370;2023-04-02T12:57:56;9.70;99.90
31991;DHT22;18508;49.386;8.370;2023-04-02T13:00:32;9.60;99.90
31991;DHT22;18508;49.386;8.370;2023-04-02T13:03:16;9.60;99.90
31991;DHT22;18508;49.386;8.370;2023-04-02T13:05:47;9.70;99.90
31991;DHT22;18508;49.386;8.370;2023-04-02T13:08:19;9.80;99.90
31991;DHT22;18508;49.386;8.370;2023-04-02T13:10:53;9.80;99.90
31991;DHT22;18508;49.386;8.370;2023-04-02T13:13:27;9.90;99.90
31991;DHT22;18508;49.386;8.370;2023-04-02T13:16:03;9.80;99.90
31991;DHT22;18508;49.386;8.370;2023-04-02T13:18:34;9.80;99.90
31991;DHT22;18508;49.386;8.370;2023-04-02T13:21:04;9.70;99.90
31991;DHT22;18508;49.386;8.370;2023-04-02T13:23:35;9.70;99.90
31991;DHT22;18508;49.386;8.370;2023-04-02T13:26:25;9.60;99.90
31991;DHT22;18508;49.386;8.370;2023-04-02T13:29:00;9.60;99.90
31991;DHT22;18508;49.386;8.370;2023-04-02T13:31:30;9.60;99.90
31991;DHT22;18508;49.386;8.370;2023-04-02T13:33:59;9.60;99.90
31991;DHT22;18508;49.386;8.370;2023-04-02T13:36:28;9.70;99.90
31991;DHT22;18508;49.386;8.370;2023-04-02T13:38:56;9.70;99.90
31991;DHT22;18508;49.386;8.370;2023-04-02T13:41:25;9.70;99.90
31991;DHT22;18508;49.386;8.370;2023-04-02T13:43:55;9.60;99.90
31991;DHT22;18508;49.386;8.370;2023-04-02T13:46:28;9.30;99.90
31991;DHT22;18508;49.386;8.370;2023-04-02T13:48:57;9.30;99.90
31991;DHT22;18508;49.386;8.370;2023-04-02T13:51:31;9.30;99.90
31991;DHT22;18508;49.386;8.370;2023-04-02T13:54:01;9.20;99.90
31991;DHT22;18508;49.386;8.370;2023-04-02T13:56:29;9.20;99.90
31991;DHT22;18508;49.386;8.370;2023-04-02T13:58:58;9.10;99.90
31991;DHT22;18508;49.386;8.370;2023-04-02T14:01:27;9.10;99.90
31991;DHT22;18508;49.386;8.370;2023-04-02T14:03:56;9.10;99.90
31991;DHT22;18508;49.386;8.370;2023-04-02T14:06:31;9.00;99.90
31991;DHT22;18508;49.386;8.370;2023-04-02T14:09:08;9.00;99.90
31991;DHT22;18508;49.386;8.370;2023-04-02T14:11:47;8.90;99.90
31991;DHT22;18508;49.386;8.370;2023-04-02T14:14:34;8.90;99.90
31991;DHT22;18508;49.386;8.370;2023-04-02T14:17:14;8.90;99.90
31991;DHT22;18508;49.386;8.370;2023-04-02T14:19:58;8.80;99.90
31991;DHT22;18508;49.386;8.370;2023-04-02T14:22:39;8.80;99.90
31991;DHT22;18508;49.386;8.370;2023-04-02T14:25:17;8.80;99.90
31991;DHT22;18508;49.386;8.370;2023-04-02T14:27:51;8.80;99.90
31991;DHT22;18508;49.386;8.370;2023-04-02T14:30:24;8.70;99.90
31991;DHT22;18508;49.386;8.370;2023-04-02T14:32:58;8.70;99.90
31991;DHT22;18508;49.386;8.370;2023-04-02T14:35:34;8.70;99.90
31991;DHT22;18508;49.386;8.370;2023-04-02T14:38:16;8.70;99.90
31991;DHT22;18508;49.386;8.370;2023-04-02T14:40:51;8.70;99.90
31991;DHT22;18508;49.386;8.370;2023-04-02T14:43:23;8.60;99.90
31991;DHT22;18508;49.386;8.370;2023-04-02T14:45:56;8.50;99.90
31991;DHT22;18508;49.386;8.370;2023-04-02T14:48:43;8.40;99.90
31991;DHT22;18508;49.386;8.370;2023-04-02T14:51:19;8.60;99.90
31991;DHT22;18508;49.386;8.370;2023-04-02T14:53:57;8.60;99.90
31991;DHT22;18508;49.386;8.370;2023-04-02T14:56:28;8.50;99.90
31991;DHT22;18508;49.386;8.370;2023-04-02T14:59:07;8.40;99.90
31991;DHT22;18508;49.386;8.370;2023-04-02T15:01:41;8.50;99.90
31991;DHT22;18508;49.386;8.370;2023-04-02T15:04:15;8.40;99.90
31991;DHT22;18508;49.386;8.370;2023-04-02T15:06:48;8.30;99.90
31991;DHT22;18508;49.386;8.370;2023-04-02T15:09:22;8.30;99.90
31991;DHT22;18508;49.386;8.370;2023-04-02T15:11:53;8.20;99.90
31991;DHT22;18508;49.386;8.370;2023-04-02T15:14:27;8.20;99.90
31991;DHT22;18508;49.386;8.370;2023-04-02T15:16:58;8.10;99.90
31991;DHT22;18508;49.386;8.370;2023-04-02T15:19:27;8.10;99.90
31991;DHT22;18508;49.386;8.370;2023-04-02T15:22:13;8.10;99.90
31991;DHT22;18508;49.386;8.370;2023-04-02T15:24:51;8.10;99.90
31991;DHT22;18508;49.386;8.370;2023-04-02T15:27:33;8.10;99.90
31991;DHT22;18508;49.386;8.370;2023-04-02T15:30:06;8.20;99.90
31991;DHT22;18508;49.386;8.370;2023-04-02T15:32:36;8.10;99.90
31991;DHT22;18508;49.386;8.370;2023-04-02T15:35:26;8.00;99.90
31991;DHT22;18508;49.386;8.370;2023-04-02T15:38:00;8.00;99.90
31991;DHT22;18508;49.386;8.370;2023-04-02T15:40:47;8.20;99.90
31991;DHT22;18508;49.386;8.370;2023-04-02T15:43:20;8.20;99.90
31991;DHT22;18508;49.386;8.370;2023-04-02T15:45:56;8.20;99.90
31991;DHT22;18508;49.386;8.370;2023-04-02T15:48:41;8.10;99.90
31991;DHT22;18508;49.386;8.370;2023-04-02T15:51:23;8.00;99.90
31991;DHT22;18508;49.386;8.370;2023-04-02T15:53:59;8.00;99.90
31991;DHT22;18508;49.386;8.370;2023-04-02T15:56:35;8.00;99.90
31991;DHT22;18508;49.386;8.370;2023-04-02T15:59:25;8.00;99.90
31991;DHT22;18508;49.386;8.370;2023-04-02T16:01:59;8.00;99.90
31991;DHT22;18508;49.386;8.370;2023-04-02T16:04:40;7.90;99.90
31991;DHT22;18508;49.386;8.370;2023-04-02T16:07:25;7.90;99.90
31991;DHT22;18508;49.386;8.370;2023-04-02T16:10:04;7.80;99.90
31991;DHT22;18508;49.386;8.370;2023-04-02T16:12:36;7.80;99.90
31991;DHT22;18508;49.386;8.370;2023-04-02T16:15:12;7.70;99.90
31991;DHT22;18508;49.386;8.370;2023-04-02T16:17:44;7.70;99.90
31991;DHT22;18508;49.386;8.370;2023-04-02T16:20:17;7.70;99.90
31991;DHT22;18508;49.386;8.370;2023-04-02T16:22:54;7.70;99.90
31991;DHT22;18508;49.386;8.370;2023-04-02T16:25:29;7.60;99.90
31991;DHT22;18508;49.386;8.370;2023-04-02T16:28:06;7.50;99.90
31991;DHT22;18508;49.386;8.370;2023-04-02T16:30:43;7.50;99.90
31991;DHT22;18508;49.386;8.370;2023-04-02T16:33:24;7.60;99.90
31991;DHT22;18508;49.386;8.370;2023-04-02T16:36:04;7.60;99.90
31991;DHT22;18508;49.386;8.370;2023-04-02T16:38:46;7.50;99.90
31991;DHT22;18508;49.386;8.370;2023-04-02T16:41:21;7.50;99.90
31991;DHT22;18508;49.386;8.370;2023-04-02T16:43:59;7.40;99.90
31991;DHT22;18508;49.386;8.370;2023-04-02T16:46:37;7.40;99.90
31991;DHT22;18508;49.386;8.370;2023-04-02T16:49:18;7.40;99.90
31991;DHT22;18508;49.386;8.370;2023-04-02T16:51:56;7.30;99.90